sensor_id;sensor_type;location;lat;lon;timestamp;temperature;humidity
10245;DHT22;5167;52.164;10.530;2024-02-14T00:01:06;8.90;16.60
10245;DHT22;5167;52.164;10.530;2024-02-14T00:03:34;8.90;16.90
10245;DHT22;5167;52.164;10.530;2024-02-14T00:06:00;8.90;16.90
10245;DHT22;5167;52.164;10.530;2024-02-14T00:08:25;8.90;17.60
10245;DHT22;5167;52.164;10.530;2024-02-14T00:10:50;8.90;17.00
10245;DHT22;5167;52.164;10.530;2024-02-14T00:13:16;9.00;17.50
10245;DHT22;5167;52.164;10.530;2024-02-14T00:15:43;8.90;17.30
10245;DHT22;5167;52.164;10.530;2024-02-14T00:18:09;9.00;17.10
10245;DHT22;5167;52.164;10.530;2024-02-14T00:20:35;9.00;17.40
10245;DHT22;5167;52.164;10.530;2024-02-14T00:23:01;9.00;17.40
10245;DHT22;5167;52.164;10.530;2024-02-14T00:25:27;9.00;16.60
10245;DHT22;5167;52.164;10.530;2024-02-14T00:27:52;9.10;17.50
10245;DHT22;5167;52.164;10.530;2024-02-14T00:30:19;9.10;17.20
10245;DHT22;5167;52.164;10.530;2024-02-14T00:32:45;9.10;16.90
10245;DHT22;5167;52.164;10.530;2024-02-14T00:35:10;9.20;17.00
10245;DHT22;5167;52.164;10.530;2024-02-14T00:37:36;9.30;17.30
10245;DHT22;5167;52.164;10.530;2024-02-14T00:40:01;9.30;17.20
10245;DHT22;5167;52.164;10.530;2024-02-14T00:42:27;9.30;16.80
10245;DHT22;5167;52.164;10.530;2024-02-14T00:44:52;9.30;17.20
10245;DHT22;5167;52.164;10.530;2024-02-14T00:47:18;9.30;17.30
10245;DHT22;5167;52.164;10.530;2024-02-14T00:49:43;9.30;17.10
10245;DHT22;5167;52.164;10.530;2024-02-14T00:52:09;9.30;17.20
10245;DHT22;5167;52.164;10.530;2024-02-14T00:54:34;9.40;17.00
10245;DHT22;5167;52.164;10.530;2024-02-14T00:57:00;9.40;16.90
10245;DHT22;5167;52.164;10.530;2024-02-14T00:59:26;9.30;16.80
10245;DHT22;5167;52.164;10.530;2024-02-14T01:01:51;9.40;16.90
10245;DHT22;5167;52.164;10.530;2024-02-14T01:04:17;9.30;17.20
10245;DHT22;5167;52.164;10.530;2024-02-14T01:06:42;9.40;17.20
10245;DHT22;5167;52.164;10.530;2024-02-14T01:09:08;9.40;17.40
10245;DHT22;5167;52.164;10.530;2024-02-14T01:11:34;9.30;17.60
10245;DHT22;5167;52.164;10.530;2024-02-14T01:13:59;9.40;17.50
10245;DHT22;5167;52.164;10.530;2024-02-14T01:16:25;9.40;17.40
10245;DHT22;5167;52.164;10.530;2024-02-14T01:18:51;9.40;16.80
10245;DHT22;5167;52.164;10.530;2024-02-14T01:21:16;9.40;17.00
10245;DHT22;5167;52.164;10.530;2024-02-14T01:23:42;9.30;18.10
10245;DHT22;5167;52.164;10.530;2024-02-14T01:26:07;9.30;17.10
10245;DHT22;5167;52.164;10.530;2024-02-14T01:28:33;9.30;17.40
10245;DHT22;5167;52.164;10.530;2024-02-14T01:30:59;9.30;17.00
10245;DHT22;5167;52.164;10.530;2024-02-14T01:33:24;9.30;17.30
10245;DHT22;5167;52.164;10.530;2024-02-14T01:35:50;9.20;17.40
10245;DHT22;5167;52.164;10.530;2024-02-14T01:38:15;9.20;17.30
10245;DHT22;5167;52.164;10.530;2024-02-14T01:40:43;9.20;17.10
10245;DHT22;5167;52.164;10.530;2024-02-14T01:43:10;9.10;17.20
10245;DHT22;5167;52.164;10.530;2024-02-14T01:45:37;9.20;17.10
10245;DHT22;5167;52.164;10.530;2024-02-14T01:48:02;9.20;16.90
10245;DHT22;5167;52.164;10.530;2024-02-14T01:50:28;9.10;17.40
10245;DHT22;5167;52.164;10.530;2024-02-14T01:52:56;9.10;17.40
10245;DHT22;5167;52.164;10.530;2024-02-14T01:55:24;9.00;18.10
10245;DHT22;5167;52.164;10.530;2024-02-14T01:57:52;9.00;18.10
10245;DHT22;5167;52.164;10.530;2024-02-14T02:00:18;9.10;18.00
10245;DHT22;5167;52.164;10.530;2024-02-14T02:02:44;9.10;18.20
10245;DHT22;5167;52.164;10.530;2024-02-14T02:05:12;9.00;17.80
10245;DHT22;5167;52.164;10.530;2024-02-14T02:07:38;9.00;18.10
10245;DHT22;5167;52.164;10.530;2024-02-14T02:10:11;9.10;18.00
10245;DHT22;5167;52.164;10.530;2024-02-14T02:12:37;9.10;18.30
10245;DHT22;5167;52.164;10.530;2024-02-14T02:15:06;9.30;18.10
10245;DHT22;5167;52.164;10.530;2024-02-14T02:17:32;9.10;18.10
10245;DHT22;5167;52.164;10.530;2024-02-14T02:20:00;9.10;18.30
10245;DHT22;5167;52.164;10.530;2024-02-14T02:22:26;9.10;18.10
10245;DHT22;5167;52.164;10.530;2024-02-14T02:24:51;9.20;18.50
10245;DHT22;5167;52.164;10.530;2024-02-14T02:27:17;9.20;18.50
10245;DHT22;5167;52.164;10.530;2024-02-14T02:29:42;9.20;18.50
10245;DHT22;5167;52.164;10.530;2024-02-14T02:32:08;9.20;18.30
10245;DHT22;5167;52.164;10.530;2024-02-14T02:34:35;9.20;18.60
10245;DHT22;5167;52.164;10.530;2024-02-14T02:37:04;9.20;19.00
10245;DHT22;5167;52.164;10.530;2024-02-14T02:39:32;9.20;19.40
10245;DHT22;5167;52.164;10.530;2024-02-14T02:41:58;9.20;19.30
10245;DHT22;5167;52.164;10.530;2024-02-14T02:44:24;9.20;19.20
10245;DHT22;5167;52.164;10.530;2024-02-14T02:46:50;9.20;19.30
10245;DHT22;5167;52.164;10.530;2024-02-14T02:49:16;9.20;19.80
10245;DHT22;5167;52.164;10.530;2024-02-14T02:51:41;9.20;19.50
10245;DHT22;5167;52.164;10.530;2024-02-14T02:54:07;9.20;19.70
10245;DHT22;5167;52.164;10.530;2024-02-14T02:56:33;9.20;19.90
10245;DHT22;5167;52.164;10.530;2024-02-14T02:58:59;9.20;19.90
10245;DHT22;5167;52.164;10.530;2024-02-14T03:01:24;9.20;19.30
10245;DHT22;5167;52.164;10.530;2024-02-14T03:03:53;9.20;20.10
10245;DHT22;5167;52.164;10.530;2024-02-14T03:06:18;9.30;20.70
10245;DHT22;5167;52.164;10.530;2024-02-14T03:08:45;9.20;21.00
10245;DHT22;5167;52.164;10.530;2024-02-14T03:11:11;9.30;21.50
10245;DHT22;5167;52.164;10.530;2024-02-14T03:13:36;9.40;21.40
10245;DHT22;5167;52.164;10.530;2024-02-14T03:16:04;9.40;22.30
10245;DHT22;5167;52.164;10.530;2024-02-14T03:18:30;9.40;22.30
10245;DHT22;5167;52.164;10.530;2024-02-14T03:20:56;9.40;23.70
10245;DHT22;5167;52.164;10.530;2024-02-14T03:23:21;9.50;23.60
10245;DHT22;5167;52.164;10.530;2024-02-14T03:25:47;9.60;23.70
10245;DHT22;5167;52.164;10.530;2024-02-14T03:28:13;9.50;23.90
10245;DHT22;5167;52.164;10.530;2024-02-14T03:30:39;9.60;24.70
10245;DHT22;5167;52.164;10.530;2024-02-14T03:33:05;9.60;24.50
10245;DHT22;5167;52.164;10.530;2024-02-14T03:35:33;9.60;24.60
10245;DHT22;5167;52.164;10.530;2024-02-14T03:38:01;9.70;24.80
10245;DHT22;5167;52.164;10.530;2024-02-14T03:40:26;9.60;24.90
10245;DHT22;5167;52.164;10.530;2024-02-14T03:42:52;9.60;25.10
10245;DHT22;5167;52.164;10.530;2024-02-14T03:45:18;9.70;25.50
10245;DHT22;5167;52.164;10.530;2024-02-14T03:47:44;9.70;25.40
10245;DHT22;5167;52.164;10.530;2024-02-14T03:50:10;9.70;25.70
10245;DHT22;5167;52.164;10.530;2024-02-14T03:52:35;9.80;26.00
10245;DHT22;5167;52.164;10.530;2024-02-14T03:55:01;9.70;25.90
10245;DHT22;5167;52.164;10.530;2024-02-14T03:57:28;9.80;26.00
10245;DHT22;5167;52.164;10.530;2024-02-14T03:59:54;9.70;26.60
10245;DHT22;5167;52.164;10.530;2024-02-14T04:02:21;9.70;27.10
10245;DHT22;5167;52.164;10.530;2024-02-14T04:04:47;9.70;27.30
10245;DHT22;5167;52.164;10.530;2024-02-14T04:07:12;9.70;27.70
10245;DHT22;5167;52.164;10.530;2024-02-14T04:09:38;9.70;28.00
10245;DHT22;5167;52.164;10.530;2024-02-14T04:12:04;9.90;28.40
10245;DHT22;5167;52.164;10.530;2024-02-14T04:14:30;9.70;28.40
10245;DHT22;5167;52.164;10.530;2024-02-14T04:16:55;9.70;29.40
10245;DHT22;5167;52.164;10.530;2024-02-14T04:19:21;9.70;29.80
10245;DHT22;5167;52.164;10.530;2024-02-14T04:21:47;9.70;29.80
10245;DHT22;5167;52.164;10.530;2024-02-14T04:24:12;9.70;29.50
10245;DHT22;5167;52.164;10.530;2024-02-14T04:26:38;9.80;30.20
10245;DHT22;5167;52.164;10.530;2024-02-14T04:29:04;9.70;30.50
10245;DHT22;5167;52.164;10.530;2024-02-14T04:31:29;9.70;30.60
10245;DHT22;5167;52.164;10.530;2024-02-14T04:33:55;9.70;30.40
10245;DHT22;5167;52.164;10.530;2024-02-14T04:36:21;9.80;30.60
10245;DHT22;5167;52.164;10.530;2024-02-14T04:38:48;9.70;30.00
10245;DHT22;5167;52.164;10.530;2024-02-14T04:41:14;9.70;29.60
10245;DHT22;5167;52.164;10.530;2024-02-14T04:43:40;9.70;30.60
10245;DHT22;5167;52.164;10.530;2024-02-14T04:46:05;9.70;30.30
10245;DHT22;5167;52.164;10.530;2024-02-14T04:48:33;9.80;30.60
10245;DHT22;5167;52.164;10.530;2024-02-14T04:50:58;9.80;30.70
10245;DHT22;5167;52.164;10.530;2024-02-14T04:53:24;9.70;30.30
10245;DHT22;5167;52.164;10.530;2024-02-14T04:55:50;9.70;30.60
10245;DHT22;5167;52.164;10.530;2024-02-14T04:58:15;9.80;30.60
10245;DHT22;5167;52.164;10.530;2024-02-14T05:00:41;9.70;30.60
10245;DHT22;5167;52.164;10.530;2024-02-14T05:03:06;9.80;30.70
10245;DHT22;5167;52.164;10.530;2024-02-14T05:05:32;9.80;30.10
10245;DHT22;5167;52.164;10.530;2024-02-14T05:07:59;9.80;30.00
10245;DHT22;5167;52.164;10.530;2024-02-14T05:10:24;9.80;30.00
10245;DHT22;5167;52.164;10.530;2024-02-14T05:12:50;9.80;29.70
10245;DHT22;5167;52.164;10.530;2024-02-14T05:15:16;9.80;29.80
10245;DHT22;5167;52.164;10.530;2024-02-14T05:17:44;9.80;29.80
10245;DHT22;5167;52.164;10.530;2024-02-14T05:20:10;9.80;29.60
10245;DHT22;5167;52.164;10.530;2024-02-14T05:22:37;9.90;29.70
10245;DHT22;5167;52.164;10.530;2024-02-14T05:25:05;9.90;29.20
10245;DHT22;5167;52.164;10.530;2024-02-14T05:27:34;9.80;29.70
10245;DHT22;5167;52.164;10.530;2024-02-14T05:29:59;9.90;29.20
10245;DHT22;5167;52.164;10.530;2024-02-14T05:32:25;9.90;29.10
10245;DHT22;5167;52.164;10.530;2024-02-14T05:34:50;9.80;29.30
10245;DHT22;5167;52.164;10.530;2024-02-14T05:37:16;9.90;29.00
10245;DHT22;5167;52.164;10.530;2024-02-14T05:39:42;10.00;29.00
10245;DHT22;5167;52.164;10.530;2024-02-14T05:42:08;9.90;28.70
10245;DHT22;5167;52.164;10.530;2024-02-14T05:44:33;9.90;28.30
10245;DHT22;5167;52.164;10.530;2024-02-14T05:46:59;9.90;28.70
10245;DHT22;5167;52.164;10.530;2024-02-14T05:49:25;9.90;29.10
10245;DHT22;5167;52.164;10.530;2024-02-14T05:51:51;9.80;29.20
10245;DHT22;5167;52.164;10.530;2024-02-14T05:54:18;9.80;28.90
10245;DHT22;5167;52.164;10.530;2024-02-14T05:56:44;9.90;29.40
10245;DHT22;5167;52.164;10.530;2024-02-14T05:59:10;9.80;29.20
10245;DHT22;5167;52.164;10.530;2024-02-14T06:01:35;9.80;29.30
10245;DHT22;5167;52.164;10.530;2024-02-14T06:04:01;9.80;29.70
10245;DHT22;5167;52.164;10.530;2024-02-14T06:06:26;9.90;29.60
10245;DHT22;5167;52.164;10.530;2024-02-14T06:08:52;9.90;29.50
10245;DHT22;5167;52.164;10.530;2024-02-14T06:11:17;9.80;29.90
10245;DHT22;5167;52.164;10.530;2024-02-14T06:13:49;9.90;29.90
10245;DHT22;5167;52.164;10.530;2024-02-14T06:16:14;9.90;29.40
10245;DHT22;5167;52.164;10.530;2024-02-14T06:18:40;9.90;29.80
10245;DHT22;5167;52.164;10.530;2024-02-14T06:21:06;9.90;29.30
10245;DHT22;5167;52.164;10.530;2024-02-14T06:23:32;10.00;29.30
10245;DHT22;5167;52.164;10.530;2024-02-14T06:25:58;10.00;29.30
10245;DHT22;5167;52.164;10.530;2024-02-14T06:28:23;10.00;29.10
10245;DHT22;5167;52.164;10.530;2024-02-14T06:30:49;10.00;29.00
10245;DHT22;5167;52.164;10.530;2024-02-14T06:33:14;10.00;28.90
10245;DHT22;5167;52.164;10.530;2024-02-14T06:35:40;9.90;29.40
10245;DHT22;5167;52.164;10.530;2024-02-14T06:38:05;9.90;29.50
10245;DHT22;5167;52.164;10.530;2024-02-14T06:40:32;9.80;29.60
10245;DHT22;5167;52.164;10.530;2024-02-14T06:42:57;9.90;30.30
10245;DHT22;5167;52.164;10.530;2024-02-14T06:45:28;10.00;30.20
10245;DHT22;5167;52.164;10.530;2024-02-14T06:47:54;10.00;29.80
10245;DHT22;5167;52.164;10.530;2024-02-14T06:50:20;10.00;30.40
10245;DHT22;5167;52.164;10.530;2024-02-14T06:52:45;10.00;30.70
10245;DHT22;5167;52.164;10.530;2024-02-14T06:55:11;9.90;31.30
10245;DHT22;5167;52.164;10.530;2024-02-14T06:57:36;10.00;31.50
10245;DHT22;5167;52.164;10.530;2024-02-14T07:00:03;9.90;32.00
10245;DHT22;5167;52.164;10.530;2024-02-14T07:02:31;10.00;32.60
10245;DHT22;5167;52.164;10.530;2024-02-14T07:04:56;10.00;32.40
10245;DHT22;5167;52.164;10.530;2024-02-14T07:07:22;10.00;32.60
10245;DHT22;5167;52.164;10.530;2024-02-14T07:09:47;9.90;33.30
10245;DHT22;5167;52.164;10.530;2024-02-14T07:12:13;9.90;33.70
10245;DHT22;5167;52.164;10.530;2024-02-14T07:14:38;9.90;34.30
10245;DHT22;5167;52.164;10.530;2024-02-14T07:17:04;10.00;34.40
10245;DHT22;5167;52.164;10.530;2024-02-14T07:19:30;10.00;35.60
10245;DHT22;5167;52.164;10.530;2024-02-14T07:21:55;10.00;36.60
10245;DHT22;5167;52.164;10.530;2024-02-14T07:24:21;10.00;36.30
10245;DHT22;5167;52.164;10.530;2024-02-14T07:26:47;9.90;37.00
10245;DHT22;5167;52.164;10.530;2024-02-14T07:29:12;9.80;37.40
10245;DHT22;5167;52.164;10.530;2024-02-14T07:31:38;9.80;38.00
10245;DHT22;5167;52.164;10.530;2024-02-14T07:34:03;9.90;38.60
10245;DHT22;5167;52.164;10.530;2024-02-14T07:36:29;9.90;39.50
10245;DHT22;5167;52.164;10.530;2024-02-14T07:38:55;9.90;40.30
10245;DHT22;5167;52.164;10.530;2024-02-14T07:41:21;9.80;41.00
10245;DHT22;5167;52.164;10.530;2024-02-14T07:43:46;9.80;42.10
10245;DHT22;5167;52.164;10.530;2024-02-14T07:46:19;9.70;43.40
10245;DHT22;5167;52.164;10.530;2024-02-14T07:48:45;9.70;44.80
10245;DHT22;5167;52.164;10.530;2024-02-14T07:51:11;9.60;45.60
10245;DHT22;5167;52.164;10.530;2024-02-14T07:53:37;9.60;46.80
10245;DHT22;5167;52.164;10.530;2024-02-14T07:56:02;9.50;49.20
10245;DHT22;5167;52.164;10.530;2024-02-14T07:58:28;9.60;50.60
10245;DHT22;5167;52.164;10.530;2024-02-14T08:00:53;9.60;50.80
10245;DHT22;5167;52.164;10.530;2024-02-14T08:03:19;9.70;52.50
10245;DHT22;5167;52.164;10.530;2024-02-14T08:05:44;9.60;51.70
10245;DHT22;5167;52.164;10.530;2024-02-14T08:08:10;9.50;54.00
10245;DHT22;5167;52.164;10.530;2024-02-14T08:10:35;9.50;56.40
10245;DHT22;5167;52.164;10.530;2024-02-14T08:13:01;9.50;58.80
10245;DHT22;5167;52.164;10.530;2024-02-14T08:15:29;9.50;59.90
10245;DHT22;5167;52.164;10.530;2024-02-14T08:17:54;9.60;61.30
10245;DHT22;5167;52.164;10.530;2024-02-14T08:20:22;9.50;63.30
10245;DHT22;5167;52.164;10.530;2024-02-14T08:22:48;9.50;66.40
10245;DHT22;5167;52.164;10.530;2024-02-14T08:25:14;9.50;67.40
10245;DHT22;5167;52.164;10.530;2024-02-14T08:27:39;9.60;68.80
10245;DHT22;5167;52.164;10.530;2024-02-14T08:30:05;9.70;69.90
10245;DHT22;5167;52.164;10.530;2024-02-14T08:32:33;9.60;69.70
10245;DHT22;5167;52.164;10.530;2024-02-14T08:34:58;9.70;70.40
10245;DHT22;5167;52.164;10.530;2024-02-14T08:37:24;9.70;70.30
10245;DHT22;5167;52.164;10.530;2024-02-14T08:39:50;9.60;70.90
10245;DHT22;5167;52.164;10.530;2024-02-14T08:42:16;9.80;72.10
10245;DHT22;5167;52.164;10.530;2024-02-14T08:44:41;9.80;72.10
10245;DHT22;5167;52.164;10.530;2024-02-14T08:47:07;9.70;71.70
10245;DHT22;5167;52.164;10.530;2024-02-14T08:49:34;9.70;74.40
10245;DHT22;5167;52.164;10.530;2024-02-14T08:51:59;9.70;76.70
10245;DHT22;5167;52.164;10.530;2024-02-14T08:54:25;9.70;78.00
10245;DHT22;5167;52.164;10.530;2024-02-14T08:56:52;9.60;79.60
10245;DHT22;5167;52.164;10.530;2024-02-14T08:59:21;9.60;81.90
10245;DHT22;5167;52.164;10.530;2024-02-14T09:01:47;9.60;84.60
10245;DHT22;5167;52.164;10.530;2024-02-14T09:04:13;9.60;84.20
10245;DHT22;5167;52.164;10.530;2024-02-14T09:06:39;9.50;85.20
10245;DHT22;5167;52.164;10.530;2024-02-14T09:09:06;9.60;86.20
10245;DHT22;5167;52.164;10.530;2024-02-14T09:11:32;9.60;87.40
10245;DHT22;5167;52.164;10.530;2024-02-14T09:13:57;9.50;89.30
10245;DHT22;5167;52.164;10.530;2024-02-14T09:16:30;9.50;90.90
10245;DHT22;5167;52.164;10.530;2024-02-14T09:18:55;9.60;95.00
10245;DHT22;5167;52.164;10.530;2024-02-14T09:21:21;9.60;99.90
10245;DHT22;5167;52.164;10.530;2024-02-14T09:23:47;9.70;99.90
10245;DHT22;5167;52.164;10.530;2024-02-14T09:26:13;9.70;99.90
10245;DHT22;5167;52.164;10.530;2024-02-14T09:28:41;9.80;99.90
10245;DHT22;5167;52.164;10.530;2024-02-14T09:31:07;9.80;99.90
10245;DHT22;5167;52.164;10.530;2024-02-14T09:33:35;9.80;99.90
10245;DHT22;5167;52.164;10.530;2024-02-14T09:36:02;9.90;99.90
10245;DHT22;5167;52.164;10.530;2024-02-14T09:38:29;10.00;99.90
10245;DHT22;5167;52.164;10.530;2024-02-14T09:41:00;9.90;99.90
10245;DHT22;5167;52.164;10.530;2024-02-14T09:43:32;10.00;99.90
10245;DHT22;5167;52.164;10.530;2024-02-14T09:46:00;10.00;99.90
10245;DHT22;5167;52.164;10.530;2024-02-14T09:48:27;10.00;99.90
10245;DHT22;5167;52.164;10.530;2024-02-14T09:50:54;10.00;99.90
10245;DHT22;5167;52.164;10.530;2024-02-14T09:53:21;10.10;99.90
10245;DHT22;5167;52.164;10.530;2024-02-14T09:55:46;10.20;99.90
10245;DHT22;5167;52.164;10.530;2024-02-14T09:58:13;10.50;99.90
10245;DHT22;5167;52.164;10.530;2024-02-14T10:00:39;10.40;99.90
10245;DHT22;5167;52.164;10.530;2024-02-14T10:03:06;10.50;99.90
10245;DHT22;5167;52.164;10.530;2024-02-14T10:05:31;10.70;99.90
10245;DHT22;5167;52.164;10.530;2024-02-14T10:07:57;10.80;99.90
10245;DHT22;5167;52.164;10.530;2024-02-14T10:10:24;10.90;99.90
10245;DHT22;5167;52.164;10.530;2024-02-14T10:12:50;11.00;98.00
10245;DHT22;5167;52.164;10.530;2024-02-14T10:15:15;11.20;93.00
10245;DHT22;5167;52.164;10.530;2024-02-14T10:17:41;11.30;91.80
10245;DHT22;5167;52.164;10.530;2024-02-14T10:20:07;11.50;88.00
10245;DHT22;5167;52.164;10.530;2024-02-14T10:22:34;11.60;84.80
10245;DHT22;5167;52.164;10.530;2024-02-14T10:25:01;11.70;82.40
10245;DHT22;5167;52.164;10.530;2024-02-14T10:27:26;11.80;80.20
10245;DHT22;5167;52.164;10.530;2024-02-14T10:29:55;11.90;77.00
10245;DHT22;5167;52.164;10.530;2024-02-14T10:32:22;12.00;73.00
10245;DHT22;5167;52.164;10.530;2024-02-14T10:34:49;12.00;71.90
10245;DHT22;5167;52.164;10.530;2024-02-14T10:37:18;12.00;67.80
10245;DHT22;5167;52.164;10.530;2024-02-14T10:39:46;12.10;67.70
10245;DHT22;5167;52.164;10.530;2024-02-14T10:42:13;12.20;65.90
10245;DHT22;5167;52.164;10.530;2024-02-14T10:44:39;12.20;64.10
10245;DHT22;5167;52.164;10.530;2024-02-14T10:47:06;12.20;63.80
10245;DHT22;5167;52.164;10.530;2024-02-14T10:49:33;12.20;62.90
10245;DHT22;5167;52.164;10.530;2024-02-14T10:51:59;12.30;62.80
10245;DHT22;5167;52.164;10.530;2024-02-14T10:54:29;12.30;62.40
10245;DHT22;5167;52.164;10.530;2024-02-14T10:56:58;12.40;58.60
10245;DHT22;5167;52.164;10.530;2024-02-14T10:59:24;12.50;56.60
10245;DHT22;5167;52.164;10.530;2024-02-14T11:01:50;12.60;55.60
10245;DHT22;5167;52.164;10.530;2024-02-14T11:04:17;12.60;54.40
10245;DHT22;5167;52.164;10.530;2024-02-14T11:06:45;12.60;54.90
10245;DHT22;5167;52.164;10.530;2024-02-14T11:09:11;12.60;53.10
10245;DHT22;5167;52.164;10.530;2024-02-14T11:11:38;12.70;52.60
10245;DHT22;5167;52.164;10.530;2024-02-14T11:14:04;12.80;51.40
10245;DHT22;5167;52.164;10.530;2024-02-14T11:16:31;12.90;50.80
10245;DHT22;5167;52.164;10.530;2024-02-14T11:19:09;12.90;50.00
10245;DHT22;5167;52.164;10.530;2024-02-14T11:21:41;13.00;49.00
10245;DHT22;5167;52.164;10.530;2024-02-14T11:24:11;13.00;47.60
10245;DHT22;5167;52.164;10.530;2024-02-14T11:26:39;13.00;46.60
10245;DHT22;5167;52.164;10.530;2024-02-14T11:29:05;12.90;45.90
10245;DHT22;5167;52.164;10.530;2024-02-14T11:31:34;13.00;46.50
10245;DHT22;5167;52.164;10.530;2024-02-14T11:34:04;13.00;47.00
10245;DHT22;5167;52.164;10.530;2024-02-14T11:36:32;13.00;46.90
10245;DHT22;5167;52.164;10.530;2024-02-14T11:38:58;12.90;45.90
10245;DHT22;5167;52.164;10.530;2024-02-14T11:41:23;13.00;46.10
10245;DHT22;5167;52.164;10.530;2024-02-14T11:43:52;13.00;46.80
10245;DHT22;5167;52.164;10.530;2024-02-14T11:46:18;13.00;47.30
10245;DHT22;5167;52.164;10.530;2024-02-14T11:48:43;13.10;47.10
10245;DHT22;5167;52.164;10.530;2024-02-14T11:51:11;13.20;46.60
10245;DHT22;5167;52.164;10.530;2024-02-14T11:53:38;13.20;45.70
10245;DHT22;5167;52.164;10.530;2024-02-14T11:56:05;13.30;44.60
10245;DHT22;5167;52.164;10.530;2024-02-14T11:58:30;13.40;44.80
10245;DHT22;5167;52.164;10.530;2024-02-14T12:00:57;13.50;43.70
10245;DHT22;5167;52.164;10.530;2024-02-14T12:03:23;13.30;43.60
10245;DHT22;5167;52.164;10.530;2024-02-14T12:05:53;13.40;43.10
10245;DHT22;5167;52.164;10.530;2024-02-14T12:08:19;13.40;42.50
10245;DHT22;5167;52.164;10.530;2024-02-14T12:10:46;13.30;41.40
10245;DHT22;5167;52.164;10.530;2024-02-14T12:13:14;13.30;42.00
10245;DHT22;5167;52.164;10.530;2024-02-14T12:15:45;13.10;43.20
10245;DHT22;5167;52.164;10.530;2024-02-14T12:18:11;13.00;43.70
10245;DHT22;5167;52.164;10.530;2024-02-14T12:20:40;13.00;44.20
10245;DHT22;5167;52.164;10.530;2024-02-14T12:23:06;13.00;45.30
10245;DHT22;5167;52.164;10.530;2024-02-14T12:25:32;13.00;44.80
10245;DHT22;5167;52.164;10.530;2024-02-14T12:27:58;12.90;44.80
10245;DHT22;5167;52.164;10.530;2024-02-14T12:30:42;12.90;45.70
10245;DHT22;5167;52.164;10.530;2024-02-14T12:33:10;12.90;45.90
10245;DHT22;5167;52.164;10.530;2024-02-14T12:35:36;12.90;46.20
10245;DHT22;5167;52.164;10.530;2024-02-14T12:38:10;13.00;45.70
10245;DHT22;5167;52.164;10.530;2024-02-14T12:40:36;12.90;46.70
10245;DHT22;5167;52.164;10.530;2024-02-14T12:43:02;13.00;45.90
10245;DHT22;5167;52.164;10.530;2024-02-14T12:45:27;13.00;47.00
10245;DHT22;5167;52.164;10.530;2024-02-14T12:47:53;13.10;46.40
10245;DHT22;5167;52.164;10.530;2024-02-14T12:50:18;13.00;46.30
10245;DHT22;5167;52.164;10.530;2024-02-14T12:52:46;13.00;46.40
10245;DHT22;5167;52.164;10.530;2024-02-14T12:55:11;13.00;46.80
10245;DHT22;5167;52.164;10.530;2024-02-14T12:57:38;13.00;46.60
10245;DHT22;5167;52.164;10.530;2024-02-14T13:00:04;13.10;47.20
10245;DHT22;5167;52.164;10.530;2024-02-14T13:02:37;13.20;46.40
10245;DHT22;5167;52.164;10.530;2024-02-14T13:05:06;13.00;46.80
10245;DHT22;5167;52.164;10.530;2024-02-14T13:07:32;13.10;46.20
10245;DHT22;5167;52.164;10.530;2024-02-14T13:09:58;13.10;47.30
10245;DHT22;5167;52.164;10.530;2024-02-14T13:12:23;13.10;47.20
10245;DHT22;5167;52.164;10.530;2024-02-14T13:14:49;13.30;47.00
10245;DHT22;5167;52.164;10.530;2024-02-14T13:17:14;13.20;46.30
10245;DHT22;5167;52.164;10.530;2024-02-14T13:19:40;13.20;46.20
10245;DHT22;5167;52.164;10.530;2024-02-14T13:22:08;13.10;46.40
10245;DHT22;5167;52.164;10.530;2024-02-14T13:24:34;13.20;46.60
10245;DHT22;5167;52.164;10.530;2024-02-14T13:27:00;13.20;46.80
10245;DHT22;5167;52.164;10.530;2024-02-14T13:29:25;13.30;46.50
10245;DHT22;5167;52.164;10.530;2024-02-14T13:31:51;13.40;47.00
10245;DHT22;5167;52.164;10.530;2024-02-14T13:34:17;13.30;46.50
10245;DHT22;5167;52.164;10.530;2024-02-14T13:36:45;13.40;46.50
10245;DHT22;5167;52.164;10.530;2024-02-14T13:39:10;13.40;46.60
10245;DHT22;5167;52.164;10.530;2024-02-14T13:41:37;13.50;45.70
10245;DHT22;5167;52.164;10.530;2024-02-14T13:44:06;13.40;45.90
10245;DHT22;5167;52.164;10.530;2024-02-14T13:46:33;13.50;45.70
10245;DHT22;5167;52.164;10.530;2024-02-14T13:48:59;13.50;44.90
10245;DHT22;5167;52.164;10.530;2024-02-14T13:51:24;13.40;45.10
10245;DHT22;5167;52.164;10.530;2024-02-14T13:53:50;13.40;44.50
10245;DHT22;5167;52.164;10.530;2024-02-14T13:56:15;13.50;44.50
10245;DHT22;5167;52.164;10.530;2024-02-14T13:58:42;13.40;44.40
10245;DHT22;5167;52.164;10.530;2024-02-14T14:01:07;13.30;44.90
10245;DHT22;5167;52.164;10.530;2024-02-14T14:03:33;13.40;44.20
10245;DHT22;5167;52.164;10.530;2024-02-14T14:06:02;13.30;44.80
10245;DHT22;5167;52.164;10.530;2024-02-14T14:08:28;13.30;44.20
10245;DHT22;5167;52.164;10.530;2024-02-14T14:10:54;13.40;44.20
10245;DHT22;5167;52.164;10.530;2024-02-14T14:13:19;13.30;44.70
10245;DHT22;5167;52.164;10.530;2024-02-14T14:15:45;13.60;44.60
10245;DHT22;5167;52.164;10.530;2024-02-14T14:18:10;13.40;44.10
10245;DHT22;5167;52.164;10.530;2024-02-14T14:20:36;13.40;44.00
10245;DHT22;5167;52.164;10.530;2024-02-14T14:23:02;13.30;44.30
10245;DHT22;5167;52.164;10.530;2024-02-14T14:25:28;13.30;44.20
10245;DHT22;5167;52.164;10.530;2024-02-14T14:27:57;13.20;44.80
10245;DHT22;5167;52.164;10.530;2024-02-14T14:30:23;13.30;45.00
10245;DHT22;5167;52.164;10.530;2024-02-14T14:32:49;13.20;45.00
10245;DHT22;5167;52.164;10.530;2024-02-14T14:35:14;13.20;44.30
10245;DHT22;5167;52.164;10.530;2024-02-14T14:37:40;13.10;45.00
10245;DHT22;5167;52.164;10.530;2024-02-14T14:40:06;13.10;44.70
10245;DHT22;5167;52.164;10.530;2024-02-14T14:42:33;13.10;45.40
10245;DHT22;5167;52.164;10.530;2024-02-14T14:44:58;13.10;45.60
10245;DHT22;5167;52.164;10.530;2024-02-14T14:47:24;13.10;45.80
10245;DHT22;5167;52.164;10.530;2024-02-14T14:49:49;13.10;45.60
10245;DHT22;5167;52.164;10.530;2024-02-14T14:52:15;13.10;46.10
10245;DHT22;5167;52.164;10.530;2024-02-14T14:54:40;13.00;46.00
10245;DHT22;5167;52.164;10.530;2024-02-14T14:57:06;13.10;46.30
10245;DHT22;5167;52.164;10.530;2024-02-14T14:59:37;13.30;46.50
10245;DHT22;5167;52.164;10.530;2024-02-14T15:02:02;13.10;45.70
10245;DHT22;5167;52.164;10.530;2024-02-14T15:04:28;13.20;45.60
10245;DHT22;5167;52.164;10.530;2024-02-14T15:06:53;13.10;46.00
10245;DHT22;5167;52.164;10.530;2024-02-14T15:09:20;13.10;45.30
10245;DHT22;5167;52.164;10.530;2024-02-14T15:11:46;13.00;45.60
10245;DHT22;5167;52.164;10.530;2024-02-14T15:14:12;13.00;46.10
10245;DHT22;5167;52.164;10.530;2024-02-14T15:16:37;13.00;46.40
10245;DHT22;5167;52.164;10.530;2024-02-14T15:19:03;13.00;46.30
10245;DHT22;5167;52.164;10.530;2024-02-14T15:21:28;13.00;46.20
10245;DHT22;5167;52.164;10.530;2024-02-14T15:23:54;13.00;46.40
10245;DHT22;5167;52.164;10.530;2024-02-14T15:26:19;13.00;46.90
10245;DHT22;5167;52.164;10.530;2024-02-14T15:28:49;12.90;47.10
10245;DHT22;5167;52.164;10.530;2024-02-14T15:31:24;13.00;47.00
10245;DHT22;5167;52.164;10.530;2024-02-14T15:34:08;12.90;46.80